Time,TemperatureF,DewpointF,PressureIn,WindDirection,WindDirectionDegrees,WindSpeedMPH,WindSpeedGustMPH,Humidity,HourlyPrecipIn,Conditions,Clouds,dailyrainin,SolarRadiationWatts/m^2,SoftwareType,DateUTC
2013-06-30 00:00:00,74.8,49.5,29.81,WSW,248,3.0,5.0,41,0.00,CLR,CLR,0.00,0.0,WeatherDisplay:10.37,2013-06-30 07:00:00,
2013-06-30 00:05:00,74.7,49.4,29.81,WSW,248,3.0,5.0,41,0.00,CLR,CLR,0.00,0.0,WeatherDisplay:10.37,2013-06-30 07:05:00,
2013-06-30 00:10:00,74.7,49.4,29.81,WSW,248,3.0,5.0,41,0.00,CLR,CLR,0.00,0.0,WeatherDisplay:10.37,2013-06-30 07:10:00,
2013-06-30 00:15:00,74.6,49.3,29.81,WSW,248,3.0,6.0,41,0.00,CLR,CLR,0.00,0.0,WeatherDisplay:10.37,2013-06-30 07:15:00,
2013-06-30 00:20:00,74.7,49.4,29.81,WSW,248,3.0,5.0,41,0.00,CLR,CLR,0.00,0.0,WeatherDisplay:10.37,2013-06-30 07:20:00,
2013-06-30 00:25:00,74.8,49.5,29.81,WSW,255,2.0,3.0,41,0.00,CLR,CLR,0.00,0.0,WeatherDisplay:10.37,2013-06-30 07:25:00,
2013-06-30 00:30:00,74.8,49.5,29.80,West,270,1.0,3.0,41,0.00,CLR,CLR,0.00,0.0,WeatherDisplay:10.37,2013-06-30 07:30:00,
2013-06-30 00:35:00,74.8,49.5,29.80,West,270,2.0,5.0,41,0.00,CLR,CLR,0.00,0.0,WeatherDisplay:10.37,2013-06-30 07:35:00,
2013-06-30 00:40:00,74.7,49.4,29.80,West,270,2.0,3.0,41,0.00,CLR,CLR,0.00,0.0,WeatherDisplay:10.37,2013-06-30 07:40:00,
2013-06-30 00:45:00,74.6,51.2,29.80,West,270,1.0,2.0,44,0.00,CLR,CLR,0.00,0.0,WeatherDisplay:10.37,2013-06-30 07:45:00,
2013-06-30 00:50:00,74.3,50.4,29.80,West,270,0.0,1.0,43,0.00,CLR,CLR,0.00,0.0,WeatherDisplay:10.37,2013-06-30 07:50:00,
2013-06-30 00:55:00,74.1,49.5,29.80,West,270,0.0,0.0,42,0.00,CLR,CLR,0.00,0.0,WeatherDisplay:10.37,2013-06-30 07:55:00,
2013-06-30 01:00:00,73.9,49.4,29.80,West,270,0.0,1.0,42,0.00,CLR,CLR,0.00,0.0,WeatherDisplay:10.37,2013-06-30 08:00:00,
2013-06-30 01:05:00,73.8,49.9,29.80,West,270,0.0,0.0,43,0.00,CLR,CLR,0.00,0.0,WeatherDisplay:10.37,2013-06-30 08:05:00,
2013-06-30 01:10:00,73.7,49.8,29.80,West,270,0.0,1.0,43,0.00,CLR,CLR,0.00,0.0,WeatherDisplay:10.37,2013-06-30 08:10:00,
2013-06-30 01:15:00,73.7,49.8,29.80,West,270,0.0,2.0,43,0.00,CLR,CLR,0.00,0.0,WeatherDisplay:10.37,2013-06-30 08:15:00,
2013-06-30 01:25:00,73.3,50.1,29.79,West,270,0.0,2.0,44,0.00,CLR,CLR,0.00,0.0,WeatherDisplay:10.37,2013-06-30 08:25:00,
2013-06-30 01:30:00,73.1,50.5,29.79,West,270,0.0,1.0,45,0.00,CLR,CLR,0.00,0.0,WeatherDisplay:10.37,2013-06-30 08:30:00,
2013-06-30 01:35:00,73.0,50.4,29.79,West,270,0.0,1.0,45,0.00,CLR,CLR,0.00,0.0,WeatherDisplay:10.37,2013-06-30 08:35:00,
2013-06-30 01:40:00,73.0,51.0,29.79,West,270,0.0,1.0,46,0.00,CLR,CLR,0.00,0.0,WeatherDisplay:10.37,2013-06-30 08:40:00,
2013-06-30 01:45:00,72.9,49.1,29.79,West,270,2.0,3.0,43,0.00,CLR,CLR,0.00,0.0,WeatherDisplay:10.37,2013-06-30 08:45:00,
2013-06-30 01:50:00,72.7,48.9,29.79,West,270,2.0,3.0,43,0.00,CLR,CLR,0.00,0.0,WeatherDisplay:10.37,2013-06-30 08:50:00,
2013-06-30 01:55:00,72.7,48.9,29.79,WSW,247,2.0,3.0,43,0.00,CLR,CLR,0.00,0.0,WeatherDisplay:10.37,2013-06-30 08:55:00,
2013-06-30 02:00:00,72.6,48.2,29.79,SSE,152,3.0,4.0,42,0.00,CLR,CLR,0.00,0.0,WeatherDisplay:10.37,2013-06-30 09:00:00,
2013-06-30 02:05:00,72.6,48.8,29.79,ESE,112,5.0,6.0,43,0.00,CLR,CLR,0.00,0.0,WeatherDisplay:10.37,2013-06-30 09:05:00,
2013-06-30 02:10:00,72.7,48.9,29.79,ESE,112,6.0,7.0,43,0.00,CLR,CLR,0.00,0.0,WeatherDisplay:10.37,2013-06-30 09:10:00,
2013-06-30 02:15:00,73.0,49.2,29.79,ESE,112,3.0,6.0,43,0.00,CLR,CLR,0.00,0.0,WeatherDisplay:10.37,2013-06-30 09:15:00,
2013-06-30 02:25:00,73.1,49.9,29.78,ESE,112,3.0,4.0,44,0.00,CLR,CLR,0.00,0.0,WeatherDisplay:10.37,2013-06-30 09:25:00,
2013-06-30 02:30:00,73.1,49.9,29.78,ESE,112,2.0,3.0,44,0.00,CLR,CLR,0.00,0.0,WeatherDisplay:10.37,2013-06-30 09:30:00,
2013-06-30 02:35:00,73.1,50.5,29.78,ESE,112,3.0,4.0,45,0.00,CLR,CLR,0.00,0.0,WeatherDisplay:10.37,2013-06-30 09:35:00,
2013-06-30 02:40:00,73.0,50.4,29.78,ESE,112,2.0,4.0,45,0.00,CLR,CLR,0.00,0.0,WeatherDisplay:10.37,2013-06-30 09:40:00,
2013-06-30 02:45:00,72.5,49.9,29.78,ESE,112,1.0,2.0,45,0.00,CLR,CLR,0.00,0.0,WeatherDisplay:10.37,2013-06-30 09:45:00,
2013-06-30 02:50:00,71.5,52.4,29.78,ESE,112,2.0,4.0,51,0.00,CLR,CLR,0.00,0.0,WeatherDisplay:10.37,2013-06-30 09:50:00,
2013-06-30 02:55:00,70.6,50.0,29.78,ESE,112,3.0,5.0,48,0.00,CLR,CLR,0.00,0.0,WeatherDisplay:10.37,2013-06-30 09:55:00,
2013-06-30 03:00:00,70.9,49.7,29.78,ESE,112,3.0,5.0,47,0.00,CLR,CLR,0.00,0.0,WeatherDisplay:10.37,2013-06-30 10:00:00,
2013-06-30 03:05:00,71.3,49.4,29.78,ESE,112,1.0,3.0,46,0.00,CLR,CLR,0.00,0.0,WeatherDisplay:10.37,2013-06-30 10:05:00,
2013-06-30 03:10:00,71.3,50.0,29.78,ESE,112,2.0,3.0,47,0.00,CLR,CLR,0.00,0.0,WeatherDisplay:10.37,2013-06-30 10:10:00,
2013-06-30 03:15:00,71.3,50.0,29.78,ESE,112,2.0,4.0,47,0.00,CLR,CLR,0.00,0.0,WeatherDisplay:10.37,2013-06-30 10:15:00,
2013-06-30 03:20:00,71.2,49.4,29.78,ESE,112,3.0,4.0,46,0.00,CLR,CLR,0.00,0.0,WeatherDisplay:10.37,2013-06-30 10:20:00,
2013-06-30 03:25:00,71.1,49.8,29.78,ESE,112,3.0,5.0,47,0.00,CLR,CLR,0.00,0.0,WeatherDisplay:10.37,2013-06-30 10:25:00,
2013-06-30 03:30:00,71.0,49.7,29.78,ESE,112,3.0,5.0,47,0.00,CLR,CLR,0.00,0.0,WeatherDisplay:10.37,2013-06-30 10:30:00,
2013-06-30 03:35:00,70.9,49.7,29.78,ESE,112,3.0,6.0,47,0.00,CLR,CLR,0.00,0.0,WeatherDisplay:10.37,2013-06-30 10:35:00,
2013-06-30 03:40:00,70.9,49.7,29.78,ESE,112,3.0,5.0,47,0.00,CLR,CLR,0.00,0.0,WeatherDisplay:10.37,2013-06-30 10:40:00,
2013-06-30 03:45:00,71.0,49.7,29.78,ESE,112,2.0,3.0,47,0.00,CLR,CLR,0.00,0.0,WeatherDisplay:10.37,2013-06-30 10:45:00,
2013-06-30 03:50:00,71.2,49.9,29.78,ESE,112,2.0,3.0,47,0.00,CLR,CLR,0.00,0.0,WeatherDisplay:10.37,2013-06-30 10:50:00,
2013-06-30 03:55:00,71.4,50.7,29.78,ESE,112,1.0,2.0,48,0.00,CLR,CLR,0.00,0.0,WeatherDisplay:10.37,2013-06-30 10:55:00,
2013-06-30 04:00:00,71.6,50.3,29.78,ESE,112,1.0,4.0,47,0.00,CLR,CLR,0.00,0.0,WeatherDisplay:10.37,2013-06-30 11:00:00,
2013-06-30 04:05:00,71.4,50.7,29.78,ESE,112,2.0,4.0,48,0.00,CLR,CLR,0.00,0.0,WeatherDisplay:10.37,2013-06-30 11:05:00,
2013-06-30 04:10:00,70.7,50.6,29.78,ENE,71,3.0,6.0,49,0.00,CLR,CLR,0.00,0.0,WeatherDisplay:10.37,2013-06-30 11:10:00,
2013-06-30 04:15:00,70.1,50.6,29.78,East,79,3.0,5.0,50,0.00,CLR,CLR,0.00,0.0,WeatherDisplay:10.37,2013-06-30 11:15:00,
2013-06-30 04:20:00,69.7,50.8,29.78,ESE,112,2.0,5.0,51,0.00,CLR,CLR,0.00,0.0,WeatherDisplay:10.37,2013-06-30 11:20:00,
2013-06-30 04:25:00,69.5,51.1,29.77,ESE,112,3.0,8.0,52,0.00,CLR,CLR,0.00,0.0,WeatherDisplay:10.37,2013-06-30 11:25:00,
2013-06-30 04:30:00,69.3,50.9,29.78,East,87,5.0,7.0,52,0.00,CLR,CLR,0.00,0.0,WeatherDisplay:10.37,2013-06-30 11:30:00,
2013-06-30 04:35:00,69.2,50.8,29.78,ENE,68,3.0,5.0,52,0.00,CLR,CLR,0.00,0.0,WeatherDisplay:10.37,2013-06-30 11:35:00,
2013-06-30 04:40:00,69.0,51.7,29.78,ENE,60,2.0,4.0,54,0.00,CLR,CLR,0.00,0.0,WeatherDisplay:10.37,2013-06-30 11:40:00,
2013-06-30 04:45:00,68.8,51.5,29.78,ENE,59,3.0,5.0,54,0.00,CLR,CLR,0.00,0.0,WeatherDisplay:10.37,2013-06-30 11:45:00,
2013-06-30 04:50:00,68.4,52.1,29.78,ENE,68,3.0,4.0,56,0.00,CLR,CLR,0.00,0.0,WeatherDisplay:10.37,2013-06-30 11:50:00,
2013-06-30 04:55:00,68.1,52.3,29.78,East,90,3.0,5.0,57,0.00,CLR,CLR,0.00,0.0,WeatherDisplay:10.37,2013-06-30 11:55:00,
2013-06-30 05:00:00,67.9,51.6,29.78,East,101,3.0,5.0,56,0.00,CLR,CLR,0.00,0.0,WeatherDisplay:10.37,2013-06-30 12:00:00,
2013-06-30 05:05:00,67.7,51.9,29.78,East,90,2.0,4.0,57,0.00,CLR,CLR,0.00,0.0,WeatherDisplay:10.37,2013-06-30 12:05:00,
2013-06-30 05:10:00,67.8,52.0,29.78,ESE,103,3.0,4.0,57,0.00,CLR,CLR,0.00,0.0,WeatherDisplay:10.37,2013-06-30 12:10:00,
2013-06-30 05:15:00,67.8,52.0,29.78,ESE,112,2.0,3.0,57,0.00,CLR,CLR,0.00,0.0,WeatherDisplay:10.37,2013-06-30 12:15:00,
2013-06-30 05:20:00,67.9,52.1,29.78,ESE,112,2.0,3.0,57,0.00,CLR,CLR,0.00,0.0,WeatherDisplay:10.37,2013-06-30 12:20:00,
2013-06-30 05:25:00,67.9,52.1,29.78,ESE,112,2.0,3.0,57,0.00,CLR,CLR,0.00,0.0,WeatherDisplay:10.37,2013-06-30 12:25:00,
2013-06-30 05:30:00,68.0,51.7,29.78,ESE,112,2.0,3.0,56,0.00,CLR,CLR,0.00,0.0,WeatherDisplay:10.37,2013-06-30 12:30:00,
2013-06-30 05:35:00,67.7,52.4,29.78,ESE,112,3.0,4.0,58,0.00,CLR,CLR,0.00,0.0,WeatherDisplay:10.37,2013-06-30 12:35:00,
2013-06-30 05:40:00,66.8,53.4,29.78,ESE,112,3.0,5.0,62,0.00,CLR,CLR,0.00,0.0,WeatherDisplay:10.37,2013-06-30 12:40:00,
2013-06-30 05:45:00,66.0,52.2,29.78,ESE,112,5.0,6.0,61,0.00,CLR,CLR,0.00,0.0,WeatherDisplay:10.37,2013-06-30 12:45:00,
2013-06-30 05:55:00,65.7,52.3,29.78,ESE,122,3.0,7.0,62,0.00,CLR,CLR,0.00,0.0,WeatherDisplay:10.37,2013-06-30 12:55:00,
2013-06-30 06:05:00,66.4,52.5,29.79,SE,124,3.0,6.0,61,0.00,CLR,CLR,0.00,7.0,WeatherDisplay:10.37,2013-06-30 13:05:00,
2013-06-30 06:10:00,66.9,53.0,29.79,ESE,112,3.0,5.0,61,0.00,CLR,CLR,0.00,9.0,WeatherDisplay:10.37,2013-06-30 13:10:00,
2013-06-30 06:15:00,67.1,52.3,29.79,ESE,112,3.0,4.0,59,0.00,CLR,CLR,0.00,11.0,WeatherDisplay:10.37,2013-06-30 13:15:00,
2013-06-30 06:20:00,67.3,52.5,29.79,ESE,112,3.0,5.0,59,0.00,CLR,CLR,0.00,12.0,WeatherDisplay:10.37,2013-06-30 13:20:00,
2013-06-30 06:25:00,67.0,53.1,29.79,ESE,112,5.0,6.0,61,0.00,CLR,CLR,0.00,13.0,WeatherDisplay:10.37,2013-06-30 13:25:00,
2013-06-30 06:30:00,66.9,53.0,29.79,ESE,122,3.0,6.0,61,0.00,CLR,CLR,0.00,15.0,WeatherDisplay:10.37,2013-06-30 13:30:00,
2013-06-30 06:40:00,67.3,52.9,29.79,SE,125,3.0,5.0,60,0.00,CLR,CLR,0.00,18.0,WeatherDisplay:10.37,2013-06-30 13:40:00,
2013-06-30 06:50:00,67.7,55.5,29.79,SE,135,0.0,1.0,65,0.00,CLR,CLR,0.00,19.0,WeatherDisplay:10.37,2013-06-30 13:50:00,
2013-06-30 07:05:00,67.0,58.1,29.79,ESE,120,2.0,5.0,73,0.00,OVC,OVC,0.00,26.0,WeatherDisplay:10.37,2013-06-30 14:05:00,
2013-06-30 07:10:00,66.5,58.3,29.79,East,99,3.0,5.0,75,0.00,OVC,OVC,0.00,53.0,WeatherDisplay:10.37,2013-06-30 14:10:00,
2013-06-30 07:15:00,66.3,58.5,29.79,East,90,2.0,4.0,76,0.00,OVC,OVC,0.00,32.0,WeatherDisplay:10.37,2013-06-30 14:15:00,
2013-06-30 07:20:00,66.3,58.5,29.79,East,90,2.0,3.0,76,0.00,OVC,OVC,0.00,26.0,WeatherDisplay:10.37,2013-06-30 14:20:00,
2013-06-30 07:30:00,67.4,59.2,29.80,East,90,1.0,3.0,75,0.00,OVC,OVC,0.00,27.0,WeatherDisplay:10.37,2013-06-30 14:30:00,
2013-06-30 07:35:00,67.9,59.3,29.80,East,90,1.0,3.0,74,0.00,OVC,OVC,0.00,31.0,WeatherDisplay:10.37,2013-06-30 14:35:00,
2013-06-30 07:45:00,69.2,59.4,29.80,East,90,2.0,3.0,71,0.00,OVC,OVC,0.00,97.0,WeatherDisplay:10.37,2013-06-30 14:45:00,
2013-06-30 07:50:00,69.8,59.6,29.80,East,90,1.0,3.0,70,0.00,OVC,OVC,0.00,165.0,WeatherDisplay:10.37,2013-06-30 14:50:00,
2013-06-30 07:55:00,70.4,60.1,29.80,East,90,1.0,3.0,70,0.00,OVC,OVC,0.00,240.0,WeatherDisplay:10.37,2013-06-30 14:55:00,
2013-06-30 08:00:00,71.0,60.7,29.80,ENE,75,2.0,4.0,70,0.00,OVC,OVC,0.00,311.0,WeatherDisplay:10.37,2013-06-30 15:00:00,
2013-06-30 08:15:00,72.3,61.1,29.81,NE,37,1.0,3.0,68,0.00,OVC,OVC,0.00,277.0,WeatherDisplay:10.37,2013-06-30 15:15:00,
2013-06-30 08:20:00,72.7,61.1,29.81,ENE,68,0.0,1.0,67,0.00,OVC,OVC,0.00,249.0,WeatherDisplay:10.37,2013-06-30 15:20:00,
2013-06-30 08:30:00,73.8,61.3,29.81,ENE,68,1.0,3.0,65,0.00,OVC,OVC,0.00,73.0,WeatherDisplay:10.37,2013-06-30 15:30:00,
2013-06-30 08:35:00,74.3,61.3,29.81,NE,34,1.0,2.0,64,0.00,OVC,OVC,0.00,45.0,WeatherDisplay:10.37,2013-06-30 15:35:00,
2013-06-30 08:40:00,74.9,61.9,29.81,North,0,1.0,3.0,64,0.00,OVC,OVC,0.00,44.0,WeatherDisplay:10.37,2013-06-30 15:40:00,
2013-06-30 08:45:00,75.4,61.9,29.81,North,0,1.0,4.0,63,0.00,OVC,OVC,0.00,51.0,WeatherDisplay:10.37,2013-06-30 15:45:00,
2013-06-30 08:55:00,76.9,62.4,29.81,North,0,2.0,4.0,61,0.00,OVC,OVC,0.00,285.0,WeatherDisplay:10.37,2013-06-30 15:55:00,
2013-06-30 09:00:00,77.4,62.4,29.81,North,0,2.0,4.0,60,0.00,OVC,OVC,0.00,446.0,WeatherDisplay:10.37,2013-06-30 16:00:00,
2013-06-30 09:10:00,78.3,62.3,29.81,North,11,2.0,5.0,58,0.00,OVC,OVC,0.00,376.0,WeatherDisplay:10.37,2013-06-30 16:10:00,
2013-06-30 09:45:00,81.3,62.0,29.81,North,353,2.0,4.0,52,0.00,OVC,OVC,0.00,61.0,WeatherDisplay:10.37,2013-06-30 16:45:00,
2013-06-30 09:50:00,81.6,61.7,29.81,North,0,2.0,3.0,51,0.00,OVC,OVC,0.00,62.0,WeatherDisplay:10.37,2013-06-30 16:50:00,
2013-06-30 09:55:00,81.8,61.3,29.81,North,0,2.0,4.0,50,0.00,OVC,OVC,0.00,63.0,WeatherDisplay:10.37,2013-06-30 16:55:00,
2013-06-30 10:15:00,83.8,62.6,29.80,North,0,2.0,4.0,49,0.00,OVC,OVC,0.00,69.0,WeatherDisplay:10.37,2013-06-30 17:15:00,
2013-06-30 10:20:00,84.1,62.3,29.80,North,7,1.0,5.0,48,0.00,OVC,OVC,0.00,70.0,WeatherDisplay:10.37,2013-06-30 17:20:00,
2013-06-30 10:50:00,86.9,61.7,29.80,NNE,22,2.0,4.0,43,0.00,OVC,OVC,0.00,81.0,WeatherDisplay:10.37,2013-06-30 17:50:00,
2013-06-30 10:55:00,87.3,62.1,29.80,NNE,22,3.0,6.0,43,0.00,OVC,OVC,0.00,88.0,WeatherDisplay:10.37,2013-06-30 17:55:00,
2013-06-30 11:00:00,87.7,61.8,29.80,NNE,22,2.0,4.0,42,0.00,OVC,OVC,0.00,155.0,WeatherDisplay:10.37,2013-06-30 18:00:00,
2013-06-30 11:05:00,88.1,61.4,29.80,NNW,337,2.0,5.0,41,0.00,OVC,OVC,0.00,342.0,WeatherDisplay:10.37,2013-06-30 18:05:00,
2013-06-30 11:10:00,88.6,61.2,29.80,WNW,300,1.0,3.0,40,0.00,OVC,OVC,0.00,620.0,WeatherDisplay:10.37,2013-06-30 18:10:00,
2013-06-30 11:45:00,90.3,62.7,29.80,North,0,3.0,6.0,40,0.00,OVC,OVC,0.00,907.0,WeatherDisplay:10.37,2013-06-30 18:45:00,
2013-06-30 11:50:00,90.5,63.6,29.80,North,9,3.0,9.0,41,0.00,OVC,OVC,0.00,911.0,WeatherDisplay:10.37,2013-06-30 18:50:00,
2013-06-30 11:55:00,90.6,63.0,29.80,North,11,3.0,9.0,40,0.00,OVC,OVC,0.00,923.0,WeatherDisplay:10.37,2013-06-30 18:55:00,
2013-06-30 12:00:00,90.8,63.1,29.80,NNW,338,3.0,8.0,40,0.00,OVC,OVC,0.00,921.0,WeatherDisplay:10.37,2013-06-30 19:00:00,
2013-06-30 12:30:00,92.1,62.8,29.80,NNW,338,2.0,7.0,38,0.00,OVC,OVC,0.00,955.0,WeatherDisplay:10.37,2013-06-30 19:30:00,
2013-06-30 12:45:00,92.3,63.0,29.79,North,351,2.0,6.0,38,0.00,OVC,OVC,0.00,960.0,WeatherDisplay:10.37,2013-06-30 19:45:00,
2013-06-30 12:50:00,92.5,63.2,29.79,NW,326,2.0,5.0,38,0.00,OVC,OVC,0.00,960.0,WeatherDisplay:10.37,2013-06-30 19:50:00,
2013-06-30 12:55:00,92.8,62.7,29.79,North,356,3.0,6.0,37,0.00,OVC,OVC,0.00,962.0,WeatherDisplay:10.37,2013-06-30 19:55:00,
2013-06-30 13:00:00,92.9,62.8,29.79,NNE,13,2.0,6.0,37,0.00,OVC,OVC,0.00,963.0,WeatherDisplay:10.37,2013-06-30 20:00:00,
2013-06-30 13:10:00,93.5,62.5,29.79,North,11,3.0,7.0,36,0.00,OVC,OVC,0.00,968.0,WeatherDisplay:10.37,2013-06-30 20:10:00,
2013-06-30 13:40:00,94.3,61.6,29.79,NNE,22,3.0,9.0,34,0.00,OVC,OVC,0.00,968.0,WeatherDisplay:10.37,2013-06-30 20:40:00,
2013-06-30 13:50:00,94.4,60.9,29.79,North,11,3.0,7.0,33,0.00,OVC,OVC,0.00,963.0,WeatherDisplay:10.37,2013-06-30 20:50:00,
2013-06-30 14:00:00,94.7,61.1,29.78,NNE,22,3.0,7.0,33,0.00,OVC,OVC,0.00,957.0,WeatherDisplay:10.37,2013-06-30 21:00:00,
2013-06-30 14:15:00,94.7,62.0,29.79,NW,324,2.0,6.0,34,0.00,OVC,OVC,0.00,945.0,WeatherDisplay:10.37,2013-06-30 21:15:00,
2013-06-30 14:20:00,95.1,62.3,29.78,North,351,3.0,6.0,34,0.00,OVC,OVC,0.00,934.0,WeatherDisplay:10.37,2013-06-30 21:20:00,
2013-06-30 14:25:00,95.5,61.8,29.78,NNW,342,2.0,6.0,33,0.00,OVC,OVC,0.00,928.0,WeatherDisplay:10.37,2013-06-30 21:25:00,
2013-06-30 14:30:00,96.0,61.4,29.78,NNW,338,2.0,6.0,32,0.00,OVC,OVC,0.00,926.0,WeatherDisplay:10.37,2013-06-30 21:30:00,
2013-06-30 14:35:00,96.3,61.6,29.78,NNW,333,3.0,6.0,32,0.00,OVC,OVC,0.00,925.0,WeatherDisplay:10.37,2013-06-30 21:35:00,
2013-06-30 14:40:00,96.5,61.8,29.78,NW,326,3.0,7.0,32,0.00,OVC,OVC,0.00,919.0,WeatherDisplay:10.37,2013-06-30 21:40:00,
2013-06-30 14:45:00,96.7,61.1,29.78,North,349,3.0,8.0,31,0.00,OVC,OVC,0.00,909.0,WeatherDisplay:10.37,2013-06-30 21:45:00,
2013-06-30 14:50:00,96.9,61.3,29.78,North,0,3.0,8.0,31,0.00,OVC,OVC,0.00,902.0,WeatherDisplay:10.37,2013-06-30 21:50:00,
2013-06-30 14:55:00,96.8,61.2,29.78,North,349,3.0,10.0,31,0.00,OVC,OVC,0.00,892.0,WeatherDisplay:10.37,2013-06-30 21:55:00,
2013-06-30 15:00:00,96.8,62.1,29.78,North,3,3.0,9.0,32,0.00,OVC,OVC,0.00,884.0,WeatherDisplay:10.37,2013-06-30 22:00:00,
2013-06-30 15:05:00,96.5,61.8,29.78,NNE,32,3.0,9.0,32,0.00,OVC,OVC,0.00,876.0,WeatherDisplay:10.37,2013-06-30 22:05:00,
2013-06-30 15:10:00,95.6,61.9,29.78,NE,34,3.0,7.0,33,0.00,OVC,OVC,0.00,873.0,WeatherDisplay:10.37,2013-06-30 22:10:00,
2013-06-30 15:15:00,95.0,62.2,29.78,NNE,22,3.0,7.0,34,0.00,OVC,OVC,0.00,864.0,WeatherDisplay:10.37,2013-06-30 22:15:00,
2013-06-30 15:20:00,94.0,62.2,29.78,NE,48,5.0,9.0,35,0.00,OVC,OVC,0.00,844.0,WeatherDisplay:10.37,2013-06-30 22:20:00,
2013-06-30 15:25:00,93.3,62.4,29.78,ENE,58,3.0,8.0,36,0.00,OVC,OVC,0.00,836.0,WeatherDisplay:10.37,2013-06-30 22:25:00,
2013-06-30 15:30:00,92.8,62.7,29.78,NE,37,2.0,6.0,37,0.00,OVC,OVC,0.00,828.0,WeatherDisplay:10.37,2013-06-30 22:30:00,
2013-06-30 15:35:00,92.8,61.9,29.78,NNE,22,3.0,8.0,36,0.00,OVC,OVC,0.00,812.0,WeatherDisplay:10.37,2013-06-30 22:35:00,
2013-06-30 15:40:00,93.0,62.1,29.78,NNE,22,3.0,6.0,36,0.00,OVC,OVC,0.00,800.0,WeatherDisplay:10.37,2013-06-30 22:40:00,
2013-06-30 15:45:00,93.5,62.5,29.78,NNE,13,2.0,5.0,36,0.00,OVC,OVC,0.00,789.0,WeatherDisplay:10.37,2013-06-30 22:45:00,
2013-06-30 15:50:00,94.0,62.2,29.78,NNW,333,3.0,6.0,35,0.00,OVC,OVC,0.00,780.0,WeatherDisplay:10.37,2013-06-30 22:50:00,
2013-06-30 15:55:00,94.5,61.8,29.77,NNW,341,2.0,6.0,34,0.00,OVC,OVC,0.00,771.0,WeatherDisplay:10.37,2013-06-30 22:55:00,
2013-06-30 16:00:00,94.7,62.0,29.77,NNE,22,2.0,5.0,34,0.00,OVC,OVC,0.00,761.0,WeatherDisplay:10.37,2013-06-30 23:00:00,
2013-06-30 16:05:00,94.9,61.3,29.77,North,11,2.0,5.0,33,0.00,OVC,OVC,0.00,746.0,WeatherDisplay:10.37,2013-06-30 23:05:00,
2013-06-30 16:10:00,95.2,61.6,29.77,North,353,1.0,4.0,33,0.00,OVC,OVC,0.00,741.0,WeatherDisplay:10.37,2013-06-30 23:10:00,
2013-06-30 16:15:00,95.5,61.8,29.77,North,353,2.0,4.0,33,0.00,OVC,OVC,0.00,726.0,WeatherDisplay:10.37,2013-06-30 23:15:00,
2013-06-30 16:20:00,95.7,61.1,29.77,North,11,2.0,5.0,32,0.00,OVC,OVC,0.00,711.0,WeatherDisplay:10.37,2013-06-30 23:20:00,
2013-06-30 16:25:00,95.8,61.2,29.77,NNE,22,2.0,5.0,32,0.00,OVC,OVC,0.00,700.0,WeatherDisplay:10.37,2013-06-30 23:25:00,
2013-06-30 16:30:00,96.0,61.4,29.77,North,1,1.0,4.0,32,0.00,OVC,OVC,0.00,685.0,WeatherDisplay:10.37,2013-06-30 23:30:00,
2013-06-30 16:35:00,96.1,60.6,29.77,NNW,345,2.0,5.0,31,0.00,OVC,OVC,0.00,668.0,WeatherDisplay:10.37,2013-06-30 23:35:00,
2013-06-30 16:40:00,96.4,59.9,29.77,North,0,1.0,4.0,30,0.00,OVC,OVC,0.00,652.0,WeatherDisplay:10.37,2013-06-30 23:40:00,
2013-06-30 16:45:00,96.6,60.1,29.76,NNE,15,2.0,5.0,30,0.00,OVC,OVC,0.00,643.0,WeatherDisplay:10.37,2013-06-30 23:45:00,
2013-06-30 16:50:00,96.8,60.3,29.76,NNE,22,2.0,6.0,30,0.00,OVC,OVC,0.00,635.0,WeatherDisplay:10.37,2013-06-30 23:50:00,
2013-06-30 16:55:00,97.3,59.7,29.76,North,349,2.0,5.0,29,0.00,OVC,OVC,0.00,620.0,WeatherDisplay:10.37,2013-06-30 23:55:00,
2013-06-30 17:00:00,97.7,59.1,29.76,NW,315,3.0,6.0,28,0.00,OVC,OVC,0.00,602.0,WeatherDisplay:10.37,2013-07-01 00:00:00,
2013-06-30 17:05:00,97.8,59.2,29.76,NW,326,3.0,7.0,28,0.00,OVC,OVC,0.00,584.0,WeatherDisplay:10.37,2013-07-01 00:05:00,
2013-06-30 17:10:00,97.9,59.3,29.76,NW,326,3.0,8.0,28,0.00,OVC,OVC,0.00,570.0,WeatherDisplay:10.37,2013-07-01 00:10:00,
2013-06-30 17:15:00,98.0,59.3,29.76,NW,326,3.0,7.0,28,0.00,OVC,OVC,0.00,559.0,WeatherDisplay:10.37,2013-07-01 00:15:00,
2013-06-30 17:20:00,97.8,59.2,29.76,NNW,329,2.0,5.0,28,0.00,OVC,OVC,0.00,544.0,WeatherDisplay:10.37,2013-07-01 00:20:00,
2013-06-30 17:25:00,97.7,59.1,29.76,NW,315,2.0,5.0,28,0.00,OVC,OVC,0.00,529.0,WeatherDisplay:10.37,2013-07-01 00:25:00,
2013-06-30 17:30:00,97.8,59.2,29.76,NW,315,2.0,7.0,28,0.00,OVC,OVC,0.00,510.0,WeatherDisplay:10.37,2013-07-01 00:30:00,
2013-06-30 17:35:00,97.8,59.2,29.76,NW,315,3.0,6.0,28,0.00,OVC,OVC,0.00,492.0,WeatherDisplay:10.37,2013-07-01 00:35:00,
2013-06-30 17:40:00,97.6,58.0,29.76,NW,315,3.0,7.0,27,0.00,OVC,OVC,0.00,478.0,WeatherDisplay:10.37,2013-07-01 00:40:00,
2013-06-30 17:45:00,97.3,57.7,29.76,NW,315,3.0,7.0,27,0.00,OVC,OVC,0.00,462.0,WeatherDisplay:10.37,2013-07-01 00:45:00,
2013-06-30 17:50:00,97.1,57.6,29.76,NW,305,3.0,7.0,27,0.00,OVC,OVC,0.00,450.0,WeatherDisplay:10.37,2013-07-01 00:50:00,
2013-06-30 17:55:00,97.0,57.5,29.76,NW,315,3.0,7.0,27,0.00,OVC,OVC,0.00,436.0,WeatherDisplay:10.37,2013-07-01 00:55:00,
2013-06-30 18:00:00,96.8,56.3,29.76,NW,326,3.0,8.0,26,0.00,OVC,OVC,0.00,423.0,WeatherDisplay:10.37,2013-07-01 01:00:00,
2013-06-30 18:05:00,96.6,56.1,29.75,NW,315,3.0,7.0,26,0.00,OVC,OVC,0.00,409.0,WeatherDisplay:10.37,2013-07-01 01:05:00,
2013-06-30 18:10:00,96.4,55.9,29.75,NW,315,3.0,8.0,26,0.00,OVC,OVC,0.00,395.0,WeatherDisplay:10.37,2013-07-01 01:10:00,
2013-06-30 18:15:00,96.1,54.6,29.75,NW,315,3.0,8.0,25,0.00,OVC,OVC,0.00,380.0,WeatherDisplay:10.37,2013-07-01 01:15:00,
2013-06-30 18:20:00,95.8,55.4,29.75,NW,315,2.0,4.0,26,0.00,OVC,OVC,0.00,366.0,WeatherDisplay:10.37,2013-07-01 01:20:00,
2013-06-30 18:25:00,95.4,56.1,29.75,NW,315,2.0,7.0,27,0.00,OVC,OVC,0.00,351.0,WeatherDisplay:10.37,2013-07-01 01:25:00,
2013-06-30 18:30:00,95.2,55.9,29.75,NW,315,2.0,5.0,27,0.00,OVC,OVC,0.00,335.0,WeatherDisplay:10.37,2013-07-01 01:30:00,
2013-06-30 18:35:00,95.0,53.7,29.75,NW,315,2.0,6.0,25,0.00,OVC,OVC,0.00,315.0,WeatherDisplay:10.37,2013-07-01 01:35:00,
2013-06-30 18:40:00,94.8,53.5,29.75,NW,326,2.0,6.0,25,0.00,OVC,OVC,0.00,295.0,WeatherDisplay:10.37,2013-07-01 01:40:00,
2013-06-30 18:45:00,94.5,53.2,29.75,NW,326,2.0,4.0,25,0.00,OVC,OVC,0.00,278.0,WeatherDisplay:10.37,2013-07-01 01:45:00,
2013-06-30 18:50:00,94.0,51.7,29.75,NW,315,2.0,4.0,24,0.00,OVC,OVC,0.00,262.0,WeatherDisplay:10.37,2013-07-01 01:50:00,
2013-06-30 18:55:00,93.6,52.5,29.75,NW,326,2.0,7.0,25,0.00,OVC,OVC,0.00,246.0,WeatherDisplay:10.37,2013-07-01 01:55:00,
2013-06-30 19:00:00,93.2,52.1,29.75,NW,323,3.0,7.0,25,0.00,CLR,CLR,0.00,231.0,WeatherDisplay:10.37,2013-07-01 02:00:00,
2013-06-30 19:05:00,92.6,51.6,29.75,NW,315,5.0,9.0,25,0.00,CLR,CLR,0.00,215.0,WeatherDisplay:10.37,2013-07-01 02:05:00,
2013-06-30 19:10:00,92.1,52.3,29.75,NW,319,1.0,5.0,26,0.00,CLR,CLR,0.00,198.0,WeatherDisplay:10.37,2013-07-01 02:10:00,
2013-06-30 19:15:00,91.6,51.9,29.75,NW,321,3.0,7.0,26,0.00,CLR,CLR,0.00,181.0,WeatherDisplay:10.37,2013-07-01 02:15:00,
2013-06-30 19:20:00,91.1,51.4,29.75,NW,315,3.0,6.0,26,0.00,CLR,CLR,0.00,164.0,WeatherDisplay:10.37,2013-07-01 02:20:00,
2013-06-30 19:25:00,90.7,52.1,29.75,NW,321,1.0,4.0,27,0.00,CLR,CLR,0.00,148.0,WeatherDisplay:10.37,2013-07-01 02:25:00,
2013-06-30 19:30:00,90.1,52.6,29.75,NNW,338,1.0,2.0,28,0.00,CLR,CLR,0.00,131.0,WeatherDisplay:10.37,2013-07-01 02:30:00,
2013-06-30 19:35:00,89.4,53.0,29.75,NNW,338,1.0,3.0,29,0.00,CLR,CLR,0.00,118.0,WeatherDisplay:10.37,2013-07-01 02:35:00,
2013-06-30 19:40:00,88.8,53.4,29.75,NNW,338,1.0,3.0,30,0.00,CLR,CLR,0.00,105.0,WeatherDisplay:10.37,2013-07-01 02:40:00,
2013-06-30 19:45:00,87.9,54.4,29.75,NNW,338,1.0,2.0,32,0.00,CLR,CLR,0.00,94.0,WeatherDisplay:10.37,2013-07-01 02:45:00,
2013-06-30 19:50:00,87.0,53.6,29.75,North,349,1.0,3.0,32,0.00,CLR,CLR,0.00,68.0,WeatherDisplay:10.37,2013-07-01 02:50:00,
2013-06-30 19:55:00,86.2,53.7,29.75,North,0,0.0,1.0,33,0.00,CLR,CLR,0.00,45.0,WeatherDisplay:10.37,2013-07-01 02:55:00,
2013-06-30 20:00:00,85.4,53.0,29.75,North,0,1.0,2.0,33,0.00,CLR,CLR,0.00,39.0,WeatherDisplay:10.37,2013-07-01 03:00:00,
2013-06-30 20:05:00,84.7,53.2,29.75,North,0,0.0,2.0,34,0.00,CLR,CLR,0.00,34.0,WeatherDisplay:10.37,2013-07-01 03:05:00,
2013-06-30 20:10:00,84.0,54.9,29.75,North,0,0.0,1.0,37,0.00,CLR,CLR,0.00,31.0,WeatherDisplay:10.37,2013-07-01 03:10:00,
2013-06-30 20:15:00,83.3,57.1,29.75,North,0,0.0,1.0,41,0.00,CLR,CLR,0.00,27.0,WeatherDisplay:10.37,2013-07-01 03:15:00,
2013-06-30 20:20:00,82.5,59.0,29.75,NNW,346,2.0,3.0,45,0.00,CLR,CLR,0.00,24.0,WeatherDisplay:10.37,2013-07-01 03:20:00,
2013-06-30 20:25:00,81.7,58.9,29.75,NNW,345,1.0,3.0,46,0.00,CLR,CLR,0.00,19.0,WeatherDisplay:10.37,2013-07-01 03:25:00,
2013-06-30 20:30:00,80.8,59.3,29.75,North,0,1.0,2.0,48,0.00,CLR,CLR,0.00,14.0,WeatherDisplay:10.37,2013-07-01 03:30:00,
2013-06-30 20:35:00,79.7,58.8,29.75,WNW,297,2.0,3.0,49,0.00,CLR,CLR,0.00,9.0,WeatherDisplay:10.37,2013-07-01 03:35:00,
2013-06-30 20:40:00,78.7,58.5,29.75,SW,236,2.0,5.0,50,0.00,CLR,CLR,0.00,6.0,WeatherDisplay:10.37,2013-07-01 03:40:00,
2013-06-30 20:45:00,77.7,58.7,29.75,SSW,202,1.0,3.0,52,0.00,CLR,CLR,0.00,5.0,WeatherDisplay:10.37,2013-07-01 03:45:00,
2013-06-30 20:55:00,76.2,58.9,29.75,North,351,1.0,2.0,55,0.00,CLR,CLR,0.00,0.0,WeatherDisplay:10.37,2013-07-01 03:55:00,
2013-06-30 21:00:00,75.5,58.7,29.75,NW,315,2.0,3.0,56,0.00,CLR,CLR,0.00,0.0,WeatherDisplay:10.37,2013-07-01 04:00:00,
2013-06-30 21:05:00,74.7,58.9,29.75,NNW,335,1.0,4.0,58,0.00,CLR,CLR,0.00,0.0,WeatherDisplay:10.37,2013-07-01 04:05:00,
2013-06-30 21:10:00,74.0,58.8,29.75,ESE,112,1.0,4.0,59,0.00,CLR,CLR,0.00,0.0,WeatherDisplay:10.37,2013-07-01 04:10:00,
2013-06-30 21:15:00,73.1,58.8,29.75,ESE,112,2.0,4.0,61,0.00,CLR,CLR,0.00,0.0,WeatherDisplay:10.37,2013-07-01 04:15:00,
2013-06-30 21:20:00,72.4,58.6,29.76,SE,139,1.0,4.0,62,0.00,CLR,CLR,0.00,0.0,WeatherDisplay:10.37,2013-07-01 04:20:00,
2013-06-30 21:25:00,71.5,58.7,29.76,SE,130,3.0,5.0,64,0.00,CLR,CLR,0.00,0.0,WeatherDisplay:10.37,2013-07-01 04:25:00,
2013-06-30 21:30:00,70.8,58.4,29.76,ESE,107,1.0,4.0,65,0.00,CLR,CLR,0.00,0.0,WeatherDisplay:10.37,2013-07-01 04:30:00,
2013-06-30 21:35:00,69.7,58.3,29.76,NW,308,1.0,4.0,67,0.00,CLR,CLR,0.00,0.0,WeatherDisplay:10.37,2013-07-01 04:35:00,
2013-06-30 21:40:00,69.7,58.3,29.76,East,90,1.0,4.0,67,0.00,CLR,CLR,0.00,0.0,WeatherDisplay:10.37,2013-07-01 04:40:00,
2013-06-30 21:45:00,69.2,58.2,29.77,NE,38,1.0,4.0,68,0.00,CLR,CLR,0.00,0.0,WeatherDisplay:10.37,2013-07-01 04:45:00,
2013-06-30 21:50:00,68.8,58.2,29.77,East,90,2.0,4.0,69,0.00,CLR,CLR,0.00,0.0,WeatherDisplay:10.37,2013-07-01 04:50:00,
2013-06-30 21:55:00,68.3,58.1,29.77,East,90,3.0,6.0,70,0.00,CLR,CLR,0.00,0.0,WeatherDisplay:10.37,2013-07-01 04:55:00,
2013-06-30 22:04:00,67.2,58.2,29.77,ESE,109,5.7,10.4,73,0.00,CLR,,0.00,0.0,WeatherDisplay:10.37,2013-07-01 05:04:00,
2013-06-30 22:09:00,66.8,57.9,29.77,East,93,2.3,3.5,73,0.00,CLR,,0.00,0.0,WeatherDisplay:10.37,2013-07-01 05:09:00,
2013-06-30 22:14:00,66.6,58.1,29.77,ESE,120,2.9,3.5,74,0.00,CLR,,0.00,0.0,WeatherDisplay:10.37,2013-07-01 05:14:00,
2013-06-30 22:19:00,66.3,58.1,29.77,ESE,110,3.1,4.0,75,0.00,CLR,,0.00,0.0,WeatherDisplay:10.37,2013-07-01 05:19:00,
2013-06-30 22:24:00,65.9,58.1,29.77,ESE,115,3.0,3.5,76,0.00,CLR,,0.00,0.0,WeatherDisplay:10.37,2013-07-01 05:24:00,
2013-06-30 22:29:00,65.6,57.8,29.77,ESE,115,1.2,1.2,76,0.00,CLR,,0.00,0.0,WeatherDisplay:10.37,2013-07-01 05:29:00,
2013-06-30 22:34:00,65.4,58.0,29.77,East,94,3.0,3.5,77,0.00,CLR,,0.00,0.0,WeatherDisplay:10.37,2013-07-01 05:34:00,
2013-06-30 22:39:00,65.2,58.2,29.77,SE,129,2.4,2.4,78,0.00,CLR,,0.00,0.0,WeatherDisplay:10.37,2013-07-01 05:39:00,
2013-06-30 22:44:00,65.0,58.0,29.77,ESE,105,2.1,3.5,78,0.00,CLR,,0.00,0.0,WeatherDisplay:10.37,2013-07-01 05:44:00,
2013-06-30 22:49:00,64.8,57.8,29.77,ESE,116,3.4,4.6,78,0.00,CLR,,0.00,0.0,WeatherDisplay:10.37,2013-07-01 05:49:00,
2013-06-30 22:54:00,64.6,57.9,29.77,SE,130,2.8,3.5,79,0.00,CLR,,0.00,0.0,WeatherDisplay:10.37,2013-07-01 05:54:00,
2013-06-30 22:59:00,64.3,58.0,29.77,SE,132,2.4,3.5,80,0.00,CLR,,0.00,0.0,WeatherDisplay:10.37,2013-07-01 05:59:00,
2013-06-30 23:04:00,64.1,57.8,29.77,SE,128,3.3,4.0,80,0.00,CLR,,0.00,0.0,WeatherDisplay:10.37,2013-07-01 06:04:00,
2013-06-30 23:09:00,64.0,58.1,29.77,East,100,2.2,4.6,81,0.00,CLR,,0.00,0.0,WeatherDisplay:10.37,2013-07-01 06:09:00,
2013-06-30 23:10:00,64.0,58.1,29.77,East,100,2.5,3.5,81,0.00,CLR,,0.00,0.0,WeatherDisplay:10.37,2013-07-01 06:10:00,
2013-06-30 23:15:00,63.8,57.9,29.77,East,100,1.9,4.0,81,0.00,CLR,,0.00,0.0,WeatherDisplay:10.37,2013-07-01 06:15:00,
2013-06-30 23:20:00,63.7,57.8,29.77,SE,127,3.7,4.6,81,0.00,CLR,,0.00,0.0,WeatherDisplay:10.37,2013-07-01 06:20:00,
2013-06-30 23:25:00,63.5,57.9,29.77,SE,142,2.4,3.5,82,0.00,CLR,,0.00,0.0,WeatherDisplay:10.37,2013-07-01 06:25:00,
2013-06-30 23:30:00,63.5,57.9,29.77,ESE,119,4.3,4.6,82,0.00,CLR,,0.00,0.0,WeatherDisplay:10.37,2013-07-01 06:30:00,
2013-06-30 23:35:00,63.4,57.8,29.77,ESE,112,4.2,5.8,82,0.00,CLR,,0.00,0.0,WeatherDisplay:10.37,2013-07-01 06:35:00,
2013-06-30 23:40:00,63.3,57.7,29.77,ESE,116,2.7,4.0,82,0.00,CLR,,0.00,0.0,WeatherDisplay:10.37,2013-07-01 06:40:00,
2013-06-30 23:45:00,63.2,57.6,29.77,ESE,117,2.0,3.5,82,0.00,CLR,,0.00,0.0,WeatherDisplay:10.37,2013-07-01 06:45:00,
2013-06-30 23:50:00,63.1,57.5,29.77,ESE,107,2.5,4.6,82,0.00,CLR,,0.00,0.0,WeatherDisplay:10.37,2013-07-01 06:50:00,
2013-06-30 23:55:00,62.9,57.3,29.77,SE,132,3.0,4.0,82,0.00,CLR,,0.00,0.0,WeatherDisplay:10.37,2013-07-01 06:55:00,